This is the latest recevied weather packets stored in our database for station/object W5COG. If no packets are shown the sender has not sent any weather packets the latest 10 day(s).
| Time | Temp. | Humidity | Pressure | Rain* | Wind** | Luminosity | Snow |
|---|---|---|---|---|---|---|---|
| 1777603526 | 14.44° C | 58% | 1017.5 hPa | 0 mm | - | 0 W/m² | - |
| 1777603226 | 14.44° C | 57% | 1017.4 hPa | 0 mm | - | 0 W/m² | - |
| 1777602926 | 14.44° C | 57% | 1017.2 hPa | 0 mm | - | 0 W/m² | - |
| 1777602626 | 14.44° C | 58% | 1017.3 hPa | 0 mm | - | 0 W/m² | - |
| 1777602326 | 14.44° C | 57% | 1017.2 hPa | 0 mm | - | 0 W/m² | - |
| 1777602026 | 15° C | 56% | 1017.1 hPa | 0 mm | - | 0 W/m² | - |
| 1777601726 | 15° C | 55% | 1016.9 hPa | 0 mm | - | 0 W/m² | - |
| 1777583426 | 18.33° C | 47% | 1016 hPa | 0 mm | - | 729 W/m² | - |
| 1777583126 | 18.33° C | 45% | 1016 hPa | 0 mm | - | 723 W/m² | - |
| 1777582226 | 18.33° C | 45% | 1016.1 hPa | 0 mm | - | 466 W/m² | - |
| 1777581926 | 18.33° C | 47% | 1016.2 hPa | 0 mm | - | 641 W/m² | - |
| 1777581326 | 18.33° C | 49% | 1016.4 hPa | 0 mm | - | 374 W/m² | - |
| 1777580426 | 17.78° C | 49% | 1016.6 hPa | 0 mm | - | 580 W/m² | - |
| 1777580126 | 17.78° C | 47% | 1016.6 hPa | 0 mm | - | 473 W/m² | - |
| 1777579826 | 18.33° C | 47% | 1016.6 hPa | 0 mm | - | 464 W/m² | - |
| 1777579526 | 17.78° C | 51% | 1016.7 hPa | 0 mm | - | 417 W/m² | - |
| 1777577726 | 18.33° C | 47% | 1017.2 hPa | 0 mm | - | 617 W/m² | - |
| 1777577426 | 18.33° C | 45% | 1017.2 hPa | 0 mm | - | 591 W/m² | - |
| 1777577126 | 18.33° C | 46% | 1017.2 hPa | 0 mm | - | 737 W/m² | - |
| 1777576826 | 18.33° C | 49% | 1017.2 hPa | 0 mm | - | 798 W/m² | - |
| 1777576526 | 17.78° C | 47% | 1017.2 hPa | 0 mm | - | 897 W/m² | - |
| 1777576226 | 17.78° C | 49% | 1017.4 hPa | 0 mm | - | 473 W/m² | - |
| 1777575626 | 18.33° C | 50% | 1017.4 hPa | 0 mm | - | 764 W/m² | - |
| 1777575326 | 17.78° C | 49% | 1017.3 hPa | 0 mm | - | 768 W/m² | - |
| 1777574126 | 17.78° C | 49% | 1017.4 hPa | 0 mm | - | 710 W/m² | - |
* Rain latest hour (hover to see other rain measurements)
** Current wind speed in m/s (hover to see current wind gust speed)